OKFLY EKAH-ENBR
Flight info
| Callsign | OKFLY |
|---|---|
| Flight time | 1h 1m |
| Altitude | 38000 |
| Route | GIPUG DCT BADAB |
| Aircraft | E190/M-SDE1E2E3FGHIJ3J4J7P2RWXY/LB1D1G1 |
Departure
| Time | 2026-05-07 09:19 |
|---|---|
| Airport | Aarhus Airport (EKAH) |
Arrival
| Time | 2026-05-07 10:20 |
|---|---|
| Airport | Bergen Airport, Flesland (ENBR) |
| Time | Latitude | Longitude | Altitude | Speed | Heading |
|---|---|---|---|---|---|
| 2026-05-07 09:11 | 56.30735 | 10.62531 | 84 ft | 0 kts | 124° |
| 2026-05-07 09:14 | 56.30734 | 10.62534 | 84 ft | 1 kts | 126° |
| 2026-05-07 09:14 | 56.30727 | 10.62544 | 86 ft | 3 kts | 136° |
| 2026-05-07 09:15 | 56.30705 | 10.62590 | 87 ft | 7 kts | 131° |
| 2026-05-07 09:15 | 56.30676 | 10.62669 | 85 ft | 9 kts | 117° |
| 2026-05-07 09:15 | 56.30647 | 10.62797 | 84 ft | 13 kts | 114° |
| 2026-05-07 09:15 | 56.30622 | 10.62947 | 85 ft | 13 kts | 106° |
| 2026-05-07 09:16 | 56.30543 | 10.62990 | 84 ft | 14 kts | 193° |
| 2026-05-07 09:16 | 56.30441 | 10.62965 | 84 ft | 10 kts | 170° |
| 2026-05-07 09:16 | 56.30423 | 10.63003 | 85 ft | 4 kts | 112° |
| 2026-05-07 09:16 | 56.30414 | 10.63073 | 88 ft | 8 kts | 102° |
| 2026-05-07 09:17 | 56.30399 | 10.63201 | 88 ft | 13 kts | 101° |
| 2026-05-07 09:17 | 56.30380 | 10.63390 | 84 ft | 18 kts | 99° |
| 2026-05-07 09:17 | 56.30354 | 10.63644 | 85 ft | 24 kts | 101° |
| 2026-05-07 09:17 | 56.30319 | 10.63963 | 85 ft | 28 kts | 101° |
| 2026-05-07 09:18 | 56.30256 | 10.64142 | 84 ft | 3 kts | 185° |
| 2026-05-07 09:18 | 56.30230 | 10.64113 | 87 ft | 8 kts | 210° |
| 2026-05-07 09:18 | 56.30127 | 10.63967 | 86 ft | 20 kts | 247° |
| 2026-05-07 09:18 | 56.30175 | 10.63484 | 85 ft | 85 kts | 281° |
| 2026-05-07 09:19 | 56.30342 | 10.61842 | 86 ft | 179 kts | 281° |
| 2026-05-07 09:19 | 56.30570 | 10.59381 | 1171 ft | 186 kts | 278° |
| 2026-05-07 09:19 | 56.30767 | 10.57442 | 3375 ft | 167 kts | 281° |
| 2026-05-07 09:19 | 56.31376 | 10.55262 | 3835 ft | 229 kts | 310° |
| 2026-05-07 09:20 | 56.32929 | 10.53374 | 3734 ft | 305 kts | 334° |
| 2026-05-07 09:20 | 56.34834 | 10.51707 | 4298 ft | 301 kts | 330° |
| 2026-05-07 09:20 | 56.36594 | 10.49724 | 5571 ft | 295 kts | 324° |
| 2026-05-07 09:20 | 56.38226 | 10.47570 | 6790 ft | 287 kts | 322° |
| 2026-05-07 09:21 | 56.39772 | 10.45404 | 8000 ft | 276 kts | 321° |
| 2026-05-07 09:21 | 56.41273 | 10.43277 | 9066 ft | 275 kts | 322° |
| 2026-05-07 09:21 | 56.42789 | 10.41137 | 10008 ft | 279 kts | 322° |
| 2026-05-07 09:21 | 56.44356 | 10.38933 | 10606 ft | 295 kts | 322° |
| 2026-05-07 09:22 | 56.46030 | 10.36603 | 11140 ft | 312 kts | 322° |
| 2026-05-07 09:22 | 56.47809 | 10.34134 | 11651 ft | 330 kts | 322° |
| 2026-05-07 09:22 | 56.49653 | 10.31573 | 12429 ft | 337 kts | 321° |
| 2026-05-07 09:22 | 56.51516 | 10.28965 | 13391 ft | 340 kts | 321° |
| 2026-05-07 09:23 | 56.53368 | 10.26357 | 14327 ft | 343 kts | 321° |
| 2026-05-07 09:23 | 56.55267 | 10.23687 | 15251 ft | 347 kts | 320° |
| 2026-05-07 09:23 | 56.57188 | 10.20986 | 16193 ft | 351 kts | 320° |
| 2026-05-07 09:23 | 56.59135 | 10.18253 | 17119 ft | 356 kts | 320° |
| 2026-05-07 09:24 | 56.61106 | 10.15494 | 18049 ft | 360 kts | 320° |
| 2026-05-07 09:24 | 56.63104 | 10.12701 | 18853 ft | 364 kts | 320° |
| 2026-05-07 09:24 | 56.65127 | 10.09876 | 19612 ft | 369 kts | 320° |
| 2026-05-07 09:24 | 56.67171 | 10.07021 | 20350 ft | 373 kts | 320° |
| 2026-05-07 09:25 | 56.69238 | 10.04136 | 21064 ft | 377 kts | 320° |
| 2026-05-07 09:25 | 56.71331 | 10.01217 | 21788 ft | 380 kts | 320° |
| 2026-05-07 09:25 | 56.73414 | 9.98311 | 22536 ft | 383 kts | 320° |
| 2026-05-07 09:25 | 56.75545 | 9.95336 | 23274 ft | 388 kts | 320° |
| 2026-05-07 09:26 | 56.77693 | 9.92339 | 24011 ft | 390 kts | 320° |
| 2026-05-07 09:26 | 56.79859 | 9.89317 | 24688 ft | 393 kts | 320° |
| 2026-05-07 09:26 | 56.82046 | 9.86265 | 25344 ft | 397 kts | 320° |
| 2026-05-07 09:26 | 56.84247 | 9.83196 | 25996 ft | 400 kts | 320° |
| 2026-05-07 09:27 | 56.86466 | 9.80102 | 26611 ft | 403 kts | 320° |
| 2026-05-07 09:27 | 56.88704 | 9.76984 | 27170 ft | 406 kts | 320° |
| 2026-05-07 09:27 | 56.93232 | 9.70669 | 28234 ft | 412 kts | 320° |
| 2026-05-07 09:28 | 56.95524 | 9.67475 | 28741 ft | 415 kts | 321° |
| 2026-05-07 09:28 | 56.97825 | 9.64265 | 29263 ft | 416 kts | 321° |
| 2026-05-07 09:28 | 57.00123 | 9.61056 | 29991 ft | 413 kts | 321° |
| 2026-05-07 09:28 | 57.02375 | 9.57914 | 30662 ft | 409 kts | 320° |
| 2026-05-07 09:29 | 57.04636 | 9.54757 | 31264 ft | 406 kts | 320° |
| 2026-05-07 09:29 | 57.06884 | 9.51616 | 31748 ft | 405 kts | 321° |
| 2026-05-07 09:29 | 57.09089 | 9.48403 | 32220 ft | 403 kts | 317° |
| 2026-05-07 09:29 | 57.11172 | 9.44963 | 32715 ft | 401 kts | 316° |
| 2026-05-07 09:30 | 57.13234 | 9.41515 | 33192 ft | 400 kts | 316° |
| 2026-05-07 09:30 | 57.15302 | 9.38103 | 33692 ft | 398 kts | 316° |
| 2026-05-07 09:30 | 57.17363 | 9.34712 | 34166 ft | 397 kts | 316° |
| 2026-05-07 09:30 | 57.19428 | 9.31328 | 34495 ft | 398 kts | 316° |
| 2026-05-07 09:31 | 57.21504 | 9.27927 | 34794 ft | 400 kts | 316° |
| 2026-05-07 09:31 | 57.23594 | 9.24501 | 35120 ft | 401 kts | 316° |
| 2026-05-07 09:31 | 57.25683 | 9.21075 | 35462 ft | 402 kts | 316° |
| 2026-05-07 09:31 | 57.27780 | 9.17632 | 35782 ft | 404 kts | 316° |
| 2026-05-07 09:32 | 57.29854 | 9.14221 | 36087 ft | 405 kts | 316° |
| 2026-05-07 09:32 | 57.31962 | 9.10749 | 36393 ft | 406 kts | 316° |
| 2026-05-07 09:32 | 57.34070 | 9.07272 | 36741 ft | 406 kts | 315° |
| 2026-05-07 09:32 | 57.36183 | 9.03781 | 37047 ft | 407 kts | 315° |
| 2026-05-07 09:33 | 57.38302 | 9.00275 | 37342 ft | 409 kts | 315° |
| 2026-05-07 09:33 | 57.40426 | 8.96754 | 37633 ft | 410 kts | 315° |
| 2026-05-07 09:33 | 57.42551 | 8.93229 | 37915 ft | 411 kts | 315° |
| 2026-05-07 09:33 | 57.44678 | 8.89693 | 38205 ft | 409 kts | 315° |
| 2026-05-07 09:34 | 57.46795 | 8.86168 | 38156 ft | 408 kts | 315° |
| 2026-05-07 09:34 | 57.51006 | 8.79139 | 38124 ft | 406 kts | 315° |
| 2026-05-07 09:35 | 57.55204 | 8.72109 | 38117 ft | 405 kts | 315° |
| 2026-05-07 09:35 | 57.59398 | 8.65057 | 38122 ft | 406 kts | 315° |
| 2026-05-07 09:36 | 57.63568 | 8.58033 | 38147 ft | 406 kts | 315° |
| 2026-05-07 09:36 | 57.67752 | 8.50955 | 38096 ft | 405 kts | 314° |
| 2026-05-07 09:37 | 57.71922 | 8.43883 | 38104 ft | 404 kts | 314° |
| 2026-05-07 09:37 | 57.76081 | 8.36809 | 38106 ft | 404 kts | 314° |
| 2026-05-07 09:38 | 57.80213 | 8.29751 | 38110 ft | 404 kts | 314° |
| 2026-05-07 09:38 | 57.84367 | 8.22644 | 38109 ft | 404 kts | 314° |
| 2026-05-07 09:39 | 57.88511 | 8.15531 | 38110 ft | 404 kts | 314° |
| 2026-05-07 09:39 | 57.92659 | 8.08396 | 38108 ft | 404 kts | 314° |
| 2026-05-07 09:40 | 57.96776 | 8.01284 | 38093 ft | 402 kts | 314° |
| 2026-05-07 09:40 | 58.00883 | 7.94128 | 38107 ft | 400 kts | 314° |
| 2026-05-07 09:41 | 58.04983 | 7.86993 | 38105 ft | 400 kts | 314° |
| 2026-05-07 09:41 | 58.09075 | 7.79844 | 38106 ft | 400 kts | 314° |
| 2026-05-07 09:42 | 58.13134 | 7.72739 | 38101 ft | 400 kts | 314° |
| 2026-05-07 09:42 | 58.17217 | 7.65566 | 38103 ft | 400 kts | 314° |
| 2026-05-07 09:43 | 58.21301 | 7.58377 | 38101 ft | 400 kts | 314° |
| 2026-05-07 09:43 | 58.25370 | 7.51180 | 38105 ft | 400 kts | 314° |
| 2026-05-07 09:44 | 58.29439 | 7.43976 | 38111 ft | 399 kts | 314° |
| 2026-05-07 09:44 | 58.33469 | 7.36824 | 38097 ft | 394 kts | 313° |
| 2026-05-07 09:45 | 58.37475 | 7.29677 | 38100 ft | 395 kts | 313° |
| 2026-05-07 09:45 | 58.41464 | 7.22541 | 38096 ft | 395 kts | 313° |
| 2026-05-07 09:46 | 58.45466 | 7.15337 | 38092 ft | 395 kts | 313° |
| 2026-05-07 09:46 | 58.49472 | 7.08111 | 38095 ft | 395 kts | 313° |
| 2026-05-07 09:47 | 58.53445 | 7.00906 | 38093 ft | 395 kts | 313° |
| 2026-05-07 09:47 | 58.57434 | 6.93661 | 38092 ft | 395 kts | 313° |
| 2026-05-07 09:48 | 58.61422 | 6.86430 | 38084 ft | 392 kts | 313° |
| 2026-05-07 09:48 | 58.65369 | 6.79224 | 38100 ft | 391 kts | 313° |
| 2026-05-07 09:49 | 58.69318 | 6.71983 | 38093 ft | 392 kts | 313° |
| 2026-05-07 09:49 | 58.73256 | 6.64740 | 38098 ft | 392 kts | 313° |
| 2026-05-07 09:50 | 58.77194 | 6.57487 | 38096 ft | 392 kts | 313° |
| 2026-05-07 09:50 | 58.81124 | 6.50204 | 38092 ft | 392 kts | 313° |
| 2026-05-07 09:51 | 58.85036 | 6.42965 | 38091 ft | 392 kts | 313° |
| 2026-05-07 09:51 | 58.88958 | 6.35649 | 38077 ft | 391 kts | 312° |
| 2026-05-07 09:52 | 58.92859 | 6.28364 | 38097 ft | 388 kts | 311° |
| 2026-05-07 09:52 | 58.96735 | 6.21047 | 37695 ft | 390 kts | 312° |
| 2026-05-07 09:52 | 58.98675 | 6.17413 | 37481 ft | 387 kts | 312° |
| 2026-05-07 09:53 | 59.00622 | 6.13766 | 36913 ft | 389 kts | 312° |
| 2026-05-07 09:53 | 59.02559 | 6.10112 | 36377 ft | 386 kts | 311° |
| 2026-05-07 09:53 | 59.04468 | 6.06490 | 35885 ft | 382 kts | 311° |
| 2026-05-07 09:53 | 59.06501 | 6.03162 | 35427 ft | 384 kts | 322° |
| 2026-05-07 09:54 | 59.08885 | 6.00885 | 34880 ft | 394 kts | 336° |
| 2026-05-07 09:54 | 59.11579 | 5.99682 | 34385 ft | 398 kts | 342° |
| 2026-05-07 09:54 | 59.14317 | 5.98709 | 33774 ft | 399 kts | 343° |
| 2026-05-07 09:54 | 59.17044 | 5.97779 | 33289 ft | 397 kts | 343° |
| 2026-05-07 09:55 | 59.19772 | 5.96838 | 32742 ft | 400 kts | 342° |
| 2026-05-07 09:55 | 59.22515 | 5.95897 | 32239 ft | 400 kts | 342° |
| 2026-05-07 09:55 | 59.25261 | 5.94944 | 31691 ft | 402 kts | 342° |
| 2026-05-07 09:55 | 59.28012 | 5.93984 | 31159 ft | 403 kts | 342° |
| 2026-05-07 09:56 | 59.30774 | 5.93010 | 30630 ft | 404 kts | 342° |
| 2026-05-07 09:56 | 59.33535 | 5.92032 | 30079 ft | 402 kts | 342° |
| 2026-05-07 09:56 | 59.36290 | 5.91064 | 29563 ft | 400 kts | 342° |
| 2026-05-07 09:56 | 59.39017 | 5.90091 | 29005 ft | 397 kts | 342° |
| 2026-05-07 09:57 | 59.41731 | 5.89054 | 28492 ft | 395 kts | 342° |
| 2026-05-07 09:57 | 59.44441 | 5.88251 | 27980 ft | 393 kts | 347° |
| 2026-05-07 09:57 | 59.47156 | 5.87800 | 27468 ft | 391 kts | 348° |
| 2026-05-07 09:57 | 59.49829 | 5.87389 | 26908 ft | 388 kts | 348° |
| 2026-05-07 09:58 | 59.52512 | 5.86965 | 26433 ft | 385 kts | 348° |
| 2026-05-07 09:58 | 59.55177 | 5.86536 | 25899 ft | 383 kts | 348° |
| 2026-05-07 09:58 | 59.57826 | 5.86108 | 25397 ft | 380 kts | 348° |
| 2026-05-07 09:58 | 59.60458 | 5.85685 | 24912 ft | 379 kts | 348° |
| 2026-05-07 09:59 | 59.63078 | 5.85253 | 24377 ft | 377 kts | 348° |
| 2026-05-07 09:59 | 59.65690 | 5.84831 | 23913 ft | 375 kts | 348° |
| 2026-05-07 09:59 | 59.68287 | 5.84400 | 23353 ft | 373 kts | 348° |
| 2026-05-07 09:59 | 59.70859 | 5.83972 | 22915 ft | 370 kts | 348° |
| 2026-05-07 10:00 | 59.73416 | 5.83553 | 22408 ft | 368 kts | 348° |
| 2026-05-07 10:00 | 59.75957 | 5.83134 | 21956 ft | 366 kts | 349° |
| 2026-05-07 10:00 | 59.78449 | 5.82722 | 21430 ft | 363 kts | 349° |
| 2026-05-07 10:00 | 59.80957 | 5.82305 | 20975 ft | 361 kts | 349° |
| 2026-05-07 10:01 | 59.83454 | 5.81859 | 20488 ft | 358 kts | 347° |
| 2026-05-07 10:01 | 59.85890 | 5.81035 | 20035 ft | 353 kts | 343° |
| 2026-05-07 10:01 | 59.88298 | 5.80048 | 19544 ft | 352 kts | 343° |
| 2026-05-07 10:01 | 59.90694 | 5.79099 | 19085 ft | 351 kts | 343° |
| 2026-05-07 10:02 | 59.92281 | 5.78494 | 18763 ft | 350 kts | 344° |
| 2026-05-07 10:02 | 59.94671 | 5.77615 | 18292 ft | 348 kts | 345° |
| 2026-05-07 10:02 | 59.97041 | 5.76756 | 17855 ft | 345 kts | 345° |
| 2026-05-07 10:02 | 59.99400 | 5.75901 | 17390 ft | 344 kts | 345° |
| 2026-05-07 10:03 | 60.01752 | 5.75046 | 16921 ft | 343 kts | 345° |
| 2026-05-07 10:03 | 60.04091 | 5.74206 | 16487 ft | 341 kts | 345° |
| 2026-05-07 10:03 | 60.06417 | 5.73361 | 16017 ft | 339 kts | 346° |
| 2026-05-07 10:03 | 60.08730 | 5.72519 | 15583 ft | 336 kts | 346° |
| 2026-05-07 10:04 | 60.11025 | 5.71687 | 15131 ft | 335 kts | 346° |
| 2026-05-07 10:04 | 60.13300 | 5.70859 | 14689 ft | 327 kts | 346° |
| 2026-05-07 10:04 | 60.15515 | 5.70141 | 14245 ft | 318 kts | 349° |
| 2026-05-07 10:04 | 60.17684 | 5.69575 | 13813 ft | 310 kts | 349° |
| 2026-05-07 10:05 | 60.19788 | 5.69021 | 13413 ft | 300 kts | 349° |
| 2026-05-07 10:05 | 60.21821 | 5.68464 | 13034 ft | 291 kts | 349° |
| 2026-05-07 10:05 | 60.23828 | 5.67908 | 12664 ft | 291 kts | 349° |
| 2026-05-07 10:05 | 60.25833 | 5.67352 | 12255 ft | 292 kts | 349° |
| 2026-05-07 10:06 | 60.27847 | 5.66786 | 11882 ft | 292 kts | 349° |
| 2026-05-07 10:06 | 60.29704 | 5.66264 | 11508 ft | 291 kts | 349° |
| 2026-05-07 10:06 | 60.31698 | 5.65702 | 11132 ft | 288 kts | 350° |
| 2026-05-07 10:06 | 60.33682 | 5.65143 | 10753 ft | 287 kts | 350° |
| 2026-05-07 10:07 | 60.35624 | 5.64596 | 10368 ft | 284 kts | 350° |
| 2026-05-07 10:07 | 60.37596 | 5.64041 | 9986 ft | 281 kts | 350° |
| 2026-05-07 10:07 | 60.39512 | 5.63498 | 9493 ft | 282 kts | 350° |
| 2026-05-07 10:07 | 60.41458 | 5.62948 | 9146 ft | 276 kts | 350° |
| 2026-05-07 10:08 | 60.43356 | 5.62406 | 8816 ft | 274 kts | 350° |
| 2026-05-07 10:08 | 60.45202 | 5.61883 | 8434 ft | 269 kts | 351° |
| 2026-05-07 10:08 | 60.47022 | 5.61383 | 8214 ft | 259 kts | 351° |
| 2026-05-07 10:08 | 60.48792 | 5.60944 | 8065 ft | 249 kts | 355° |
| 2026-05-07 10:09 | 60.50474 | 5.60975 | 7967 ft | 240 kts | 2° |
| 2026-05-07 10:09 | 60.52133 | 5.61163 | 7979 ft | 240 kts | 1° |
| 2026-05-07 10:09 | 60.53797 | 5.61061 | 8017 ft | 240 kts | 347° |
| 2026-05-07 10:09 | 60.55414 | 5.60133 | 8053 ft | 242 kts | 339° |
| 2026-05-07 10:10 | 60.56996 | 5.58965 | 8052 ft | 243 kts | 338° |
| 2026-05-07 10:10 | 60.58586 | 5.57749 | 7989 ft | 242 kts | 333° |
| 2026-05-07 10:10 | 60.59981 | 5.55894 | 8013 ft | 240 kts | 321° |
| 2026-05-07 10:10 | 60.61278 | 5.53736 | 8010 ft | 240 kts | 319° |
| 2026-05-07 10:11 | 60.62562 | 5.51541 | 7998 ft | 240 kts | 319° |
| 2026-05-07 10:11 | 60.63705 | 5.49098 | 8004 ft | 238 kts | 303° |
| 2026-05-07 10:11 | 60.64591 | 5.46242 | 7998 ft | 240 kts | 299° |
| 2026-05-07 10:11 | 60.65423 | 5.43307 | 7996 ft | 240 kts | 298° |
| 2026-05-07 10:12 | 60.66214 | 5.40384 | 7995 ft | 237 kts | 291° |
| 2026-05-07 10:12 | 60.66625 | 5.37106 | 8019 ft | 236 kts | 278° |
| 2026-05-07 10:12 | 60.66881 | 5.33791 | 8003 ft | 237 kts | 277° |
| 2026-05-07 10:12 | 60.66786 | 5.30447 | 7541 ft | 246 kts | 247° |
| 2026-05-07 10:13 | 60.65737 | 5.27894 | 7412 ft | 234 kts | 211° |
| 2026-05-07 10:13 | 60.64201 | 5.26972 | 7179 ft | 233 kts | 182° |
| 2026-05-07 10:13 | 60.62572 | 5.27114 | 6888 ft | 236 kts | 177° |
| 2026-05-07 10:13 | 60.60929 | 5.27340 | 6574 ft | 237 kts | 178° |
| 2026-05-07 10:14 | 60.59288 | 5.27410 | 6250 ft | 234 kts | 180° |
| 2026-05-07 10:14 | 60.57669 | 5.27464 | 5981 ft | 231 kts | 179° |
| 2026-05-07 10:14 | 60.56070 | 5.27574 | 5716 ft | 228 kts | 178° |
| 2026-05-07 10:14 | 60.54485 | 5.27700 | 5451 ft | 228 kts | 178° |
| 2026-05-07 10:15 | 60.52898 | 5.27827 | 5133 ft | 228 kts | 178° |
| 2026-05-07 10:15 | 60.51322 | 5.27807 | 4835 ft | 226 kts | 192° |
| 2026-05-07 10:15 | 60.49988 | 5.26240 | 4558 ft | 224 kts | 226° |
| 2026-05-07 10:15 | 60.49166 | 5.23565 | 4332 ft | 225 kts | 244° |
| 2026-05-07 10:16 | 60.48551 | 5.20656 | 3994 ft | 224 kts | 245° |
| 2026-05-07 10:16 | 60.47879 | 5.17814 | 3685 ft | 222 kts | 237° |
| 2026-05-07 10:16 | 60.46716 | 5.15975 | 3561 ft | 221 kts | 198° |
| 2026-05-07 10:16 | 60.45139 | 5.16061 | 3016 ft | 231 kts | 164° |
| 2026-05-07 10:17 | 60.43636 | 5.17044 | 2872 ft | 223 kts | 166° |
| 2026-05-07 10:17 | 60.42116 | 5.17536 | 2607 ft | 221 kts | 174° |
| 2026-05-07 10:17 | 60.40597 | 5.17940 | 2317 ft | 219 kts | 170° |
| 2026-05-07 10:17 | 60.39104 | 5.18531 | 2024 ft | 219 kts | 169° |
| 2026-05-07 10:18 | 60.37618 | 5.19027 | 1729 ft | 211 kts | 172° |
| 2026-05-07 10:18 | 60.36219 | 5.19473 | 1448 ft | 196 kts | 170° |
| 2026-05-07 10:18 | 60.34951 | 5.19924 | 1173 ft | 176 kts | 170° |
| 2026-05-07 10:18 | 60.33794 | 5.20316 | 952 ft | 166 kts | 171° |
| 2026-05-07 10:19 | 60.32732 | 5.20671 | 691 ft | 145 kts | 171° |
| 2026-05-07 10:19 | 60.31789 | 5.20986 | 497 ft | 132 kts | 172° |
| 2026-05-07 10:19 | 60.30902 | 5.21280 | 328 ft | 127 kts | 172° |
| 2026-05-07 10:19 | 60.30048 | 5.21582 | 195 ft | 118 kts | 172° |
| 2026-05-07 10:20 | 60.29238 | 5.21874 | 164 ft | 109 kts | 167° |
| 2026-05-07 10:20 | 60.28632 | 5.22057 | 147 ft | 64 kts | 170° |
| 2026-05-07 10:20 | 60.28320 | 5.22158 | 145 ft | 29 kts | 166° |
| 2026-05-07 10:20 | 60.28281 | 5.22252 | 144 ft | 5 kts | 92° |
| 2026-05-07 10:21 | 60.28280 | 5.22335 | 144 ft | 3 kts | 84° |
| 2026-05-07 10:21 | 60.28283 | 5.22369 | 144 ft | 0 kts | 81° |
| 2026-05-07 10:22 | 60.28283 | 5.22370 | 144 ft | 1 kts | 81° |
| 2026-05-07 10:22 | 60.28297 | 5.22449 | 144 ft | 11 kts | 50° |
| 2026-05-07 10:22 | 60.28375 | 5.22464 | 145 ft | 17 kts | 350° |
| 2026-05-07 10:23 | 60.28529 | 5.22415 | 146 ft | 28 kts | 350° |
| 2026-05-07 10:23 | 60.28674 | 5.22368 | 147 ft | 4 kts | 12° |
| 2026-05-07 10:23 | 60.28701 | 5.22447 | 147 ft | 9 kts | 48° |
| 2026-05-07 10:23 | 60.28768 | 5.22455 | 148 ft | 18 kts | 353° |
| 2026-05-07 10:24 | 60.28898 | 5.22404 | 149 ft | 11 kts | 342° |
| 2026-05-07 10:24 | 60.28954 | 5.22398 | 150 ft | 2 kts | 41° |
| 2026-05-07 10:24 | 60.28954 | 5.22417 | 150 ft | 3 kts | 100° |
| 2026-05-07 10:24 | 60.28945 | 5.22472 | 149 ft | 6 kts | 107° |
| 2026-05-07 10:25 | 60.28936 | 5.22518 | 149 ft | 1 kts | 110° |
| 2026-05-07 10:25 | 60.28931 | 5.22538 | 149 ft | 1 kts | 114° |
| 2026-05-07 10:25 | 60.28931 | 5.22540 | 149 ft | 0 kts | 115° |